sensor_id;sensor_type;location;lat;lon;timestamp;pressure;altitude;pressure_sealevel;temperature;humidity
71004;BME280;59025;42.050;-8.660;2022-09-03T00:02:27;100735.72;;;16.11;100.00
71004;BME280;59025;42.050;-8.660;2022-09-03T00:05:02;100741.94;;;16.10;100.00
71004;BME280;59025;42.050;-8.660;2022-09-03T00:07:35;100726.59;;;16.08;100.00
71004;BME280;59025;42.050;-8.660;2022-09-03T00:10:07;100737.22;;;16.07;100.00
71004;BME280;59025;42.050;-8.660;2022-09-03T00:12:39;100732.59;;;16.09;100.00
71004;BME280;59025;42.050;-8.660;2022-09-03T00:15:11;100732.59;;;16.09;100.00
71004;BME280;59025;42.050;-8.660;2022-09-03T00:17:42;100734.72;;;16.12;100.00
71004;BME280;59025;42.050;-8.660;2022-09-03T00:20:15;100734.47;;;16.13;100.00
71004;BME280;59025;42.050;-8.660;2022-09-03T00:22:46;100731.66;;;16.15;100.00
71004;BME280;59025;42.050;-8.660;2022-09-03T00:25:20;100731.78;;;16.08;100.00
71004;BME280;59025;42.050;-8.660;2022-09-03T00:27:52;100735.28;;;16.14;100.00
71004;BME280;59025;42.050;-8.660;2022-09-03T00:30:22;100734.47;;;16.13;100.00
71004;BME280;59025;42.050;-8.660;2022-09-03T00:32:56;100733.13;;;16.11;100.00
71004;BME280;59025;42.050;-8.660;2022-09-03T00:35:28;100732.81;;;16.07;100.00
71004;BME280;59025;42.050;-8.660;2022-09-03T00:37:59;100739.50;;;16.03;100.00
71004;BME280;59025;42.050;-8.660;2022-09-03T00:40:46;100738.81;;;15.96;100.00
71004;BME280;59025;42.050;-8.660;2022-09-03T00:43:26;100736.69;;;15.93;100.00
71004;BME280;59025;42.050;-8.660;2022-09-03T00:46:04;100731.63;;;15.87;100.00
71004;BME280;59025;42.050;-8.660;2022-09-03T00:48:45;100731.19;;;15.78;100.00
71004;BME280;59025;42.050;-8.660;2022-09-03T00:51:21;100736.50;;;15.72;100.00
71004;BME280;59025;42.050;-8.660;2022-09-03T00:53:59;100735.72;;;15.71;100.00
71004;BME280;59025;42.050;-8.660;2022-09-03T00:56:36;100725.34;;;15.71;100.00
71004;BME280;59025;42.050;-8.660;2022-09-03T00:59:13;100727.13;;;15.71;100.00
71004;BME280;59025;42.050;-8.660;2022-09-03T01:01:50;100727.13;;;15.71;100.00
71004;BME280;59025;42.050;-8.660;2022-09-03T01:04:33;100715.75;;;15.72;100.00
71004;BME280;59025;42.050;-8.660;2022-09-03T01:07:08;100714.84;;;15.66;100.00
71004;BME280;59025;42.050;-8.660;2022-09-03T01:09:50;100721.97;;;15.59;100.00
71004;BME280;59025;42.050;-8.660;2022-09-03T01:12:28;100724.47;;;15.54;100.00
71004;BME280;59025;42.050;-8.660;2022-09-03T01:15:05;100723.91;;;15.52;100.00
71004;BME280;59025;42.050;-8.660;2022-09-03T01:17:46;100720.63;;;15.45;100.00
71004;BME280;59025;42.050;-8.660;2022-09-03T01:20:26;100721.09;;;15.42;100.00
71004;BME280;59025;42.050;-8.660;2022-09-03T01:26:15;100731.22;;;15.32;100.00
71004;BME280;59025;42.050;-8.660;2022-09-03T01:28:56;100739.88;;;15.26;100.00
71004;BME280;59025;42.050;-8.660;2022-09-03T01:31:31;100736.16;;;15.22;100.00
71004;BME280;59025;42.050;-8.660;2022-09-03T01:34:11;100726.13;;;15.14;100.00
71004;BME280;59025;42.050;-8.660;2022-09-03T01:36:49;100732.09;;;15.03;100.00
71004;BME280;59025;42.050;-8.660;2022-09-03T01:39:23;100733.06;;;14.91;100.00
71004;BME280;59025;42.050;-8.660;2022-09-03T01:42:00;100742.06;;;14.88;100.00
71004;BME280;59025;42.050;-8.660;2022-09-03T01:45:02;100743.53;;;14.84;100.00
71004;BME280;59025;42.050;-8.660;2022-09-03T01:47:42;100740.59;;;14.81;100.00
71004;BME280;59025;42.050;-8.660;2022-09-03T01:50:24;100734.97;;;14.84;100.00
71004;BME280;59025;42.050;-8.660;2022-09-03T01:53:06;100747.47;;;14.75;100.00
71004;BME280;59025;42.050;-8.660;2022-09-03T01:55:45;100739.09;;;14.73;100.00
71004;BME280;59025;42.050;-8.660;2022-09-03T01:58:20;100745.41;;;14.66;100.00
71004;BME280;59025;42.050;-8.660;2022-09-03T02:00:54;100750.00;;;14.64;100.00
71004;BME280;59025;42.050;-8.660;2022-09-03T02:03:24;100738.28;;;14.61;100.00
71004;BME280;59025;42.050;-8.660;2022-09-03T02:05:59;100744.81;;;14.52;100.00
71004;BME280;59025;42.050;-8.660;2022-09-03T02:08:28;100744.47;;;14.49;100.00
71004;BME280;59025;42.050;-8.660;2022-09-03T02:10:57;100730.00;;;14.41;100.00
71004;BME280;59025;42.050;-8.660;2022-09-03T02:13:29;100741.81;;;14.37;100.00
71004;BME280;59025;42.050;-8.660;2022-09-03T02:16:01;100749.44;;;14.32;100.00
71004;BME280;59025;42.050;-8.660;2022-09-03T02:18:32;100735.94;;;14.30;100.00
71004;BME280;59025;42.050;-8.660;2022-09-03T02:21:00;100738.94;;;14.27;100.00
71004;BME280;59025;42.050;-8.660;2022-09-03T02:23:28;100733.75;;;14.27;100.00
71004;BME280;59025;42.050;-8.660;2022-09-03T02:25:57;100742.75;;;14.25;100.00
71004;BME280;59025;42.050;-8.660;2022-09-03T02:28:26;100743.41;;;14.20;100.00
71004;BME280;59025;42.050;-8.660;2022-09-03T02:30:54;100758.56;;;14.17;100.00
71004;BME280;59025;42.050;-8.660;2022-09-03T02:33:23;100755.03;;;14.11;100.00
71004;BME280;59025;42.050;-8.660;2022-09-03T02:35:51;100749.66;;;14.13;100.00
71004;BME280;59025;42.050;-8.660;2022-09-03T02:38:21;100739.28;;;14.13;100.00
71004;BME280;59025;42.050;-8.660;2022-09-03T02:40:50;100747.25;;;14.11;100.00
71004;BME280;59025;42.050;-8.660;2022-09-03T02:43:22;100750.31;;;14.08;100.00
71004;BME280;59025;42.050;-8.660;2022-09-03T02:45:58;100751.72;;;14.04;100.00
71004;BME280;59025;42.050;-8.660;2022-09-03T02:48:29;100737.28;;;13.97;100.00
71004;BME280;59025;42.050;-8.660;2022-09-03T02:50:58;100733.78;;;13.91;100.00
71004;BME280;59025;42.050;-8.660;2022-09-03T02:53:25;100743.97;;;13.86;100.00
71004;BME280;59025;42.050;-8.660;2022-09-03T02:55:57;100749.97;;;13.87;100.00
71004;BME280;59025;42.050;-8.660;2022-09-03T02:58:25;100751.38;;;13.83;100.00
71004;BME280;59025;42.050;-8.660;2022-09-03T03:00:53;100754.75;;;13.83;100.00
71004;BME280;59025;42.050;-8.660;2022-09-03T03:03:21;100759.91;;;13.83;100.00
71004;BME280;59025;42.050;-8.660;2022-09-03T03:05:50;100749.97;;;13.87;100.00
71004;BME280;59025;42.050;-8.660;2022-09-03T03:08:22;100758.34;;;13.82;100.00
71004;BME280;59025;42.050;-8.660;2022-09-03T03:10:51;100760.31;;;13.87;100.00
71004;BME280;59025;42.050;-8.660;2022-09-03T03:13:18;100756.72;;;13.88;100.00
71004;BME280;59025;42.050;-8.660;2022-09-03T03:15:46;100755.50;;;13.90;100.00
71004;BME280;59025;42.050;-8.660;2022-09-03T03:18:14;100734.56;;;13.92;100.00
71004;BME280;59025;42.050;-8.660;2022-09-03T03:20:42;100743.56;;;13.89;100.00
71004;BME280;59025;42.050;-8.660;2022-09-03T03:23:11;100730.91;;;13.81;100.00
71004;BME280;59025;42.050;-8.660;2022-09-03T03:25:39;100736.94;;;13.75;100.00
71004;BME280;59025;42.050;-8.660;2022-09-03T03:28:07;100751.63;;;13.57;100.00
71004;BME280;59025;42.050;-8.660;2022-09-03T03:30:36;100759.03;;;13.53;100.00
71004;BME280;59025;42.050;-8.660;2022-09-03T03:33:05;100760.75;;;13.42;100.00
71004;BME280;59025;42.050;-8.660;2022-09-03T03:35:32;100749.75;;;13.46;100.00
71004;BME280;59025;42.050;-8.660;2022-09-03T03:38:00;100752.19;;;13.41;100.00
71004;BME280;59025;42.050;-8.660;2022-09-03T03:40:29;100768.38;;;13.30;100.00
71004;BME280;59025;42.050;-8.660;2022-09-03T03:42:57;100777.94;;;13.30;100.00
71004;BME280;59025;42.050;-8.660;2022-09-03T03:45:24;100774.56;;;13.29;100.00
71004;BME280;59025;42.050;-8.660;2022-09-03T03:47:56;100777.78;;;13.25;100.00
71004;BME280;59025;42.050;-8.660;2022-09-03T03:50:24;100785.13;;;13.28;100.00
71004;BME280;59025;42.050;-8.660;2022-09-03T03:52:52;100778.78;;;13.24;100.00
71004;BME280;59025;42.050;-8.660;2022-09-03T03:55:20;100785.53;;;13.25;100.00
71004;BME280;59025;42.050;-8.660;2022-09-03T03:57:49;100788.31;;;13.23;100.00
71004;BME280;59025;42.050;-8.660;2022-09-03T04:00:16;100788.75;;;13.20;100.00
71004;BME280;59025;42.050;-8.660;2022-09-03T04:02:44;100792.47;;;13.24;100.00
71004;BME280;59025;42.050;-8.660;2022-09-03T04:05:11;100780.78;;;13.22;100.00
71004;BME280;59025;42.050;-8.660;2022-09-03T04:07:40;100787.75;;;13.21;100.00
71004;BME280;59025;42.050;-8.660;2022-09-03T04:10:09;100787.22;;;13.13;100.00
71004;BME280;59025;42.050;-8.660;2022-09-03T04:12:36;100799.56;;;13.11;100.00
71004;BME280;59025;42.050;-8.660;2022-09-03T04:15:05;100796.03;;;12.99;100.00
71004;BME280;59025;42.050;-8.660;2022-09-03T04:17:33;100787.25;;;13.06;100.00
71004;BME280;59025;42.050;-8.660;2022-09-03T04:20:00;100771.75;;;13.06;100.00
71004;BME280;59025;42.050;-8.660;2022-09-03T04:22:28;100778.13;;;13.04;100.00
71004;BME280;59025;42.050;-8.660;2022-09-03T04:24:56;100776.16;;;13.06;100.00
71004;BME280;59025;42.050;-8.660;2022-09-03T04:27:23;100780.34;;;13.00;100.00
71004;BME280;59025;42.050;-8.660;2022-09-03T04:29:51;100793.88;;;12.96;100.00
71004;BME280;59025;42.050;-8.660;2022-09-03T04:32:20;100799.22;;;12.94;100.00
71004;BME280;59025;42.050;-8.660;2022-09-03T04:35:05;100779.34;;;13.01;100.00
71004;BME280;59025;42.050;-8.660;2022-09-03T04:37:32;100773.16;;;13.02;100.00
71004;BME280;59025;42.050;-8.660;2022-09-03T04:40:00;100778.97;;;12.98;100.00
71004;BME280;59025;42.050;-8.660;2022-09-03T04:42:27;100766.22;;;13.03;100.00
71004;BME280;59025;42.050;-8.660;2022-09-03T04:44:54;100760.47;;;13.01;100.00
71004;BME280;59025;42.050;-8.660;2022-09-03T04:47:23;100751.34;;;12.98;100.00
71004;BME280;59025;42.050;-8.660;2022-09-03T04:49:52;100746.00;;;12.93;100.00
71004;BME280;59025;42.050;-8.660;2022-09-03T04:52:20;100751.94;;;12.93;100.00
71004;BME280;59025;42.050;-8.660;2022-09-03T04:54:47;100750.97;;;12.95;100.00
71004;BME280;59025;42.050;-8.660;2022-09-03T04:57:15;100762.06;;;12.95;100.00
71004;BME280;59025;42.050;-8.660;2022-09-03T04:59:42;100760.13;;;12.91;100.00
71004;BME280;59025;42.050;-8.660;2022-09-03T05:02:10;100765.28;;;12.91;100.00
71004;BME280;59025;42.050;-8.660;2022-09-03T05:04:39;100777.63;;;12.89;100.00
71004;BME280;59025;42.050;-8.660;2022-09-03T05:07:06;100771.44;;;12.90;100.00
71004;BME280;59025;42.050;-8.660;2022-09-03T05:09:33;100759.09;;;12.98;100.00
71004;BME280;59025;42.050;-8.660;2022-09-03T05:12:01;100758.66;;;13.01;100.00
71004;BME280;59025;42.050;-8.660;2022-09-03T05:14:28;100756.09;;;13.01;100.00
71004;BME280;59025;42.050;-8.660;2022-09-03T05:16:56;100758.09;;;12.99;100.00
71004;BME280;59025;42.050;-8.660;2022-09-03T05:19:23;100761.06;;;13.03;100.00
71004;BME280;59025;42.050;-8.660;2022-09-03T05:21:52;100769.25;;;12.93;100.00
71004;BME280;59025;42.050;-8.660;2022-09-03T05:24:20;100752.63;;;12.83;100.00
71004;BME280;59025;42.050;-8.660;2022-09-03T05:26:47;100761.97;;;12.84;100.00
71004;BME280;59025;42.050;-8.660;2022-09-03T05:29:15;100774.44;;;12.87;100.00
71004;BME280;59025;42.050;-8.660;2022-09-03T05:31:44;100773.44;;;12.88;100.00
71004;BME280;59025;42.050;-8.660;2022-09-03T05:34:11;100769.44;;;12.92;100.00
71004;BME280;59025;42.050;-8.660;2022-09-03T05:36:39;100767.06;;;12.90;100.00
71004;BME280;59025;42.050;-8.660;2022-09-03T05:39:08;100772.59;;;12.93;100.00
71004;BME280;59025;42.050;-8.660;2022-09-03T05:41:35;100770.84;;;12.88;100.00
71004;BME280;59025;42.050;-8.660;2022-09-03T05:44:03;100770.28;;;12.86;100.00
71004;BME280;59025;42.050;-8.660;2022-09-03T05:46:32;100767.97;;;12.78;100.00
71004;BME280;59025;42.050;-8.660;2022-09-03T05:49:04;100762.41;;;12.74;100.00
71004;BME280;59025;42.050;-8.660;2022-09-03T05:51:32;100756.06;;;12.70;100.00
71004;BME280;59025;42.050;-8.660;2022-09-03T05:54:00;100761.63;;;12.67;100.00
71004;BME280;59025;42.050;-8.660;2022-09-03T05:56:31;100771.66;;;12.57;100.00
71004;BME280;59025;42.050;-8.660;2022-09-03T05:59:01;100791.28;;;12.58;100.00
71004;BME280;59025;42.050;-8.660;2022-09-03T06:01:32;100793.69;;;12.53;100.00
71004;BME280;59025;42.050;-8.660;2022-09-03T06:04:02;100798.66;;;12.55;100.00
71004;BME280;59025;42.050;-8.660;2022-09-03T06:06:30;100793.06;;;12.58;100.00
71004;BME280;59025;42.050;-8.660;2022-09-03T06:08:59;100792.66;;;12.61;100.00
71004;BME280;59025;42.050;-8.660;2022-09-03T06:11:29;100795.06;;;12.56;100.00
71004;BME280;59025;42.050;-8.660;2022-09-03T06:13:59;100800.44;;;12.54;100.00
71004;BME280;59025;42.050;-8.660;2022-09-03T06:16:28;100813.13;;;12.56;100.00
71004;BME280;59025;42.050;-8.660;2022-09-03T06:18:56;100807.34;;;12.67;100.00
71004;BME280;59025;42.050;-8.660;2022-09-03T06:21:23;100821.06;;;12.61;100.00
71004;BME280;59025;42.050;-8.660;2022-09-03T06:23:52;100818.09;;;12.57;100.00
71004;BME280;59025;42.050;-8.660;2022-09-03T06:26:21;100818.88;;;12.64;100.00
71004;BME280;59025;42.050;-8.660;2022-09-03T06:28:50;100825.13;;;12.81;100.00
71004;BME280;59025;42.050;-8.660;2022-09-03T06:31:19;100824.69;;;12.91;100.00
71004;BME280;59025;42.050;-8.660;2022-09-03T06:33:47;100829.84;;;12.91;100.00
71004;BME280;59025;42.050;-8.660;2022-09-03T06:36:16;100832.41;;;12.91;100.00
71004;BME280;59025;42.050;-8.660;2022-09-03T06:38:44;100835.00;;;12.97;100.00
71004;BME280;59025;42.050;-8.660;2022-09-03T06:41:14;100841.94;;;13.03;100.00
71004;BME280;59025;42.050;-8.660;2022-09-03T06:43:43;100835.47;;;13.19;100.00
71004;BME280;59025;42.050;-8.660;2022-09-03T06:46:14;100835.84;;;13.22;100.00
71004;BME280;59025;42.050;-8.660;2022-09-03T06:48:42;100831.66;;;13.21;100.00
71004;BME280;59025;42.050;-8.660;2022-09-03T06:51:12;100834.63;;;13.25;100.00
71004;BME280;59025;42.050;-8.660;2022-09-03T06:53:41;100831.63;;;13.28;100.00
71004;BME280;59025;42.050;-8.660;2022-09-03T06:56:10;100833.16;;;13.35;100.00
71004;BME280;59025;42.050;-8.660;2022-09-03T06:58:40;100837.22;;;13.49;100.00
71004;BME280;59025;42.050;-8.660;2022-09-03T07:01:10;100790.75;;;14.98;100.00
71004;BME280;59025;42.050;-8.660;2022-09-03T07:03:41;100748.41;;;16.47;100.00
71004;BME280;59025;42.050;-8.660;2022-09-03T07:06:10;100724.38;;;17.72;100.00
71004;BME280;59025;42.050;-8.660;2022-09-03T07:08:38;100725.00;;;18.48;100.00
71004;BME280;59025;42.050;-8.660;2022-09-03T07:11:09;100725.94;;;19.27;100.00
71004;BME280;59025;42.050;-8.660;2022-09-03T07:13:38;100728.56;;;19.83;100.00
71004;BME280;59025;42.050;-8.660;2022-09-03T07:16:07;100719.59;;;20.31;100.00
71004;BME280;59025;42.050;-8.660;2022-09-03T07:18:35;100725.66;;;20.81;100.00
71004;BME280;59025;42.050;-8.660;2022-09-03T07:21:06;100722.25;;;21.11;100.00
71004;BME280;59025;42.050;-8.660;2022-09-03T07:23:34;100723.22;;;21.50;100.00
71004;BME280;59025;42.050;-8.660;2022-09-03T07:26:04;100727.63;;;21.79;100.00
71004;BME280;59025;42.050;-8.660;2022-09-03T07:28:34;100729.03;;;22.10;100.00
71004;BME280;59025;42.050;-8.660;2022-09-03T07:31:04;100723.28;;;22.08;100.00
71004;BME280;59025;42.050;-8.660;2022-09-03T07:33:32;100724.69;;;22.44;100.00
71004;BME280;59025;42.050;-8.660;2022-09-03T07:36:08;100725.28;;;22.98;100.00
71004;BME280;59025;42.050;-8.660;2022-09-03T07:38:35;100723.38;;;23.61;100.00
71004;BME280;59025;42.050;-8.660;2022-09-03T07:41:07;100728.38;;;24.04;100.00
71004;BME280;59025;42.050;-8.660;2022-09-03T07:43:36;100720.06;;;23.97;100.00
71004;BME280;59025;42.050;-8.660;2022-09-03T07:46:05;100721.84;;;24.39;100.00
71004;BME280;59025;42.050;-8.660;2022-09-03T07:48:33;100715.31;;;25.32;100.00
71004;BME280;59025;42.050;-8.660;2022-09-03T07:51:02;100724.69;;;25.65;100.00
71004;BME280;59025;42.050;-8.660;2022-09-03T07:53:31;100723.97;;;25.33;100.00
71004;BME280;59025;42.050;-8.660;2022-09-03T07:56:03;100728.25;;;25.42;100.00
71004;BME280;59025;42.050;-8.660;2022-09-03T07:58:32;100728.84;;;25.80;100.00
71004;BME280;59025;42.050;-8.660;2022-09-03T08:01:04;100726.69;;;26.09;100.00
71004;BME280;59025;42.050;-8.660;2022-09-03T08:03:33;100731.16;;;26.08;100.00
71004;BME280;59025;42.050;-8.660;2022-09-03T08:06:01;100727.31;;;25.52;100.00
71004;BME280;59025;42.050;-8.660;2022-09-03T08:08:31;100710.81;;;24.18;100.00
71004;BME280;59025;42.050;-8.660;2022-09-03T08:11:03;100701.50;;;24.07;100.00
71004;BME280;59025;42.050;-8.660;2022-09-03T08:13:36;100715.38;;;24.82;100.00
71004;BME280;59025;42.050;-8.660;2022-09-03T08:16:03;100709.91;;;25.24;100.00
71004;BME280;59025;42.050;-8.660;2022-09-03T08:18:31;100726.41;;;25.70;100.00
71004;BME280;59025;42.050;-8.660;2022-09-03T08:21:04;100725.44;;;26.28;100.00
71004;BME280;59025;42.050;-8.660;2022-09-03T08:23:36;100734.06;;;26.20;100.00
71004;BME280;59025;42.050;-8.660;2022-09-03T08:26:04;100725.84;;;26.22;100.00
71004;BME280;59025;42.050;-8.660;2022-09-03T08:28:31;100717.84;;;26.49;100.00
71004;BME280;59025;42.050;-8.660;2022-09-03T08:31:04;100730.25;;;26.92;100.00
71004;BME280;59025;42.050;-8.660;2022-09-03T08:33:32;100724.41;;;27.26;100.00
71004;BME280;59025;42.050;-8.660;2022-09-03T08:36:08;100728.44;;;27.23;100.00
71004;BME280;59025;42.050;-8.660;2022-09-03T08:38:39;100728.94;;;27.90;100.00
71004;BME280;59025;42.050;-8.660;2022-09-03T08:41:12;100729.44;;;28.43;100.00
71004;BME280;59025;42.050;-8.660;2022-09-03T08:44:05;100730.22;;;28.60;100.00
71004;BME280;59025;42.050;-8.660;2022-09-03T08:46:42;100725.25;;;29.22;97.62
71004;BME280;59025;42.050;-8.660;2022-09-03T08:49:18;100726.75;;;29.69;96.20
71004;BME280;59025;42.050;-8.660;2022-09-03T08:51:48;100722.69;;;29.71;93.48
71004;BME280;59025;42.050;-8.660;2022-09-03T08:54:19;100721.28;;;29.74;93.02
71004;BME280;59025;42.050;-8.660;2022-09-03T08:56:49;100732.53;;;29.91;91.79
71004;BME280;59025;42.050;-8.660;2022-09-03T08:59:17;100729.88;;;29.91;89.72
71004;BME280;59025;42.050;-8.660;2022-09-03T09:01:52;100725.88;;;29.85;90.78
71004;BME280;59025;42.050;-8.660;2022-09-03T09:04:31;100732.34;;;29.96;86.58
71004;BME280;59025;42.050;-8.660;2022-09-03T09:07:07;100730.34;;;29.93;86.73
71004;BME280;59025;42.050;-8.660;2022-09-03T09:09:45;100731.53;;;30.04;83.37
71004;BME280;59025;42.050;-8.660;2022-09-03T09:12:24;100724.53;;;30.20;82.01
71004;BME280;59025;42.050;-8.660;2022-09-03T09:15:05;100728.38;;;30.64;82.64
71004;BME280;59025;42.050;-8.660;2022-09-03T09:18:00;100723.47;;;30.98;83.79
71004;BME280;59025;42.050;-8.660;2022-09-03T09:20:35;100721.06;;;31.17;81.18
71004;BME280;59025;42.050;-8.660;2022-09-03T09:23:11;100726.63;;;31.36;82.13
71004;BME280;59025;42.050;-8.660;2022-09-03T09:25:46;100728.28;;;31.65;74.59
71004;BME280;59025;42.050;-8.660;2022-09-03T09:28:18;100728.63;;;31.63;74.60
71004;BME280;59025;42.050;-8.660;2022-09-03T09:30:47;100723.72;;;31.17;78.70
71004;BME280;59025;42.050;-8.660;2022-09-03T09:33:15;100724.75;;;30.68;81.75
71004;BME280;59025;42.050;-8.660;2022-09-03T09:35:43;100717.41;;;31.10;76.89
71004;BME280;59025;42.050;-8.660;2022-09-03T09:38:12;100719.88;;;31.27;81.06
71004;BME280;59025;42.050;-8.660;2022-09-03T09:40:42;100720.88;;;31.22;81.99
71004;BME280;59025;42.050;-8.660;2022-09-03T09:43:12;100714.78;;;31.34;83.17
71004;BME280;59025;42.050;-8.660;2022-09-03T09:45:42;100713.06;;;31.65;82.26
71004;BME280;59025;42.050;-8.660;2022-09-03T09:48:17;100711.97;;;31.90;77.59
71004;BME280;59025;42.050;-8.660;2022-09-03T09:50:45;100718.97;;;32.10;74.23
71004;BME280;59025;42.050;-8.660;2022-09-03T09:53:12;100718.75;;;32.43;71.07
71004;BME280;59025;42.050;-8.660;2022-09-03T09:55:52;100719.03;;;32.96;68.12
71004;BME280;59025;42.050;-8.660;2022-09-03T09:58:21;100724.38;;;33.43;63.91
71004;BME280;59025;42.050;-8.660;2022-09-03T10:00:56;100728.25;;;32.56;66.50
71004;BME280;59025;42.050;-8.660;2022-09-03T10:03:25;100720.75;;;31.79;68.53
71004;BME280;59025;42.050;-8.660;2022-09-03T10:06:01;100705.53;;;32.19;68.83
71004;BME280;59025;42.050;-8.660;2022-09-03T10:08:51;100715.81;;;32.60;66.28
71004;BME280;59025;42.050;-8.660;2022-09-03T10:11:21;100717.59;;;32.28;61.84
71004;BME280;59025;42.050;-8.660;2022-09-03T10:13:53;100717.75;;;33.06;54.01
71004;BME280;59025;42.050;-8.660;2022-09-03T10:16:24;100724.63;;;32.09;63.31
71004;BME280;59025;42.050;-8.660;2022-09-03T10:18:59;100710.38;;;32.01;61.52
71004;BME280;59025;42.050;-8.660;2022-09-03T10:21:32;100692.88;;;32.28;66.02
71004;BME280;59025;42.050;-8.660;2022-09-03T10:24:16;100694.22;;;32.65;62.00
71004;BME280;59025;42.050;-8.660;2022-09-03T10:26:49;100689.22;;;32.20;65.42
71004;BME280;59025;42.050;-8.660;2022-09-03T10:29:20;100687.78;;;30.87;75.04
71004;BME280;59025;42.050;-8.660;2022-09-03T10:31:58;100679.28;;;29.47;88.62
71004;BME280;59025;42.050;-8.660;2022-09-03T10:34:33;100665.56;;;28.70;90.96
71004;BME280;59025;42.050;-8.660;2022-09-03T10:37:09;100655.50;;;27.87;97.23
71004;BME280;59025;42.050;-8.660;2022-09-03T10:39:53;100659.16;;;27.43;100.00
71004;BME280;59025;42.050;-8.660;2022-09-03T10:42:34;100666.41;;;26.90;100.00
71004;BME280;59025;42.050;-8.660;2022-09-03T10:45:16;100668.28;;;26.02;100.00
71004;BME280;59025;42.050;-8.660;2022-09-03T10:48:08;100663.03;;;25.88;100.00
71004;BME280;59025;42.050;-8.660;2022-09-03T10:50:46;100664.09;;;25.38;100.00
71004;BME280;59025;42.050;-8.660;2022-09-03T10:53:25;100669.53;;;25.28;100.00
71004;BME280;59025;42.050;-8.660;2022-09-03T10:56:00;100670.47;;;25.05;100.00
71004;BME280;59025;42.050;-8.660;2022-09-03T10:58:43;100664.81;;;24.98;100.00
71004;BME280;59025;42.050;-8.660;2022-09-03T11:01:20;100671.06;;;25.02;100.00
71004;BME280;59025;42.050;-8.660;2022-09-03T11:03:58;100660.91;;;24.82;100.00
71004;BME280;59025;42.050;-8.660;2022-09-03T11:06:38;100666.06;;;24.74;100.00
71004;BME280;59025;42.050;-8.660;2022-09-03T11:09:12;100671.31;;;24.74;100.00
71004;BME280;59025;42.050;-8.660;2022-09-03T11:11:45;100667.47;;;25.12;100.00
71004;BME280;59025;42.050;-8.660;2022-09-03T11:14:20;100667.75;;;25.51;100.00
71004;BME280;59025;42.050;-8.660;2022-09-03T11:16:54;100674.94;;;25.99;100.00
71004;BME280;59025;42.050;-8.660;2022-09-03T11:19:32;100673.91;;;27.36;100.00
71004;BME280;59025;42.050;-8.660;2022-09-03T11:22:00;100671.22;;;27.83;100.00
71004;BME280;59025;42.050;-8.660;2022-09-03T11:24:31;100672.16;;;27.87;100.00
71004;BME280;59025;42.050;-8.660;2022-09-03T11:27:11;100669.53;;;28.04;100.00
71004;BME280;59025;42.050;-8.660;2022-09-03T11:29:49;100671.06;;;29.40;98.68
71004;BME280;59025;42.050;-8.660;2022-09-03T11:32:21;100661.88;;;29.37;98.56
71004;BME280;59025;42.050;-8.660;2022-09-03T11:34:53;100667.09;;;29.95;92.63
71004;BME280;59025;42.050;-8.660;2022-09-03T11:37:23;100667.09;;;30.16;94.51
71004;BME280;59025;42.050;-8.660;2022-09-03T11:40:02;100659.34;;;30.11;94.55
71004;BME280;59025;42.050;-8.660;2022-09-03T11:42:34;100661.75;;;28.96;95.78
71004;BME280;59025;42.050;-8.660;2022-09-03T11:45:34;100645.66;;;27.70;100.00
71004;BME280;59025;42.050;-8.660;2022-09-03T11:48:16;100634.31;;;28.38;98.58
71004;BME280;59025;42.050;-8.660;2022-09-03T11:50:52;100642.72;;;29.03;97.23
71004;BME280;59025;42.050;-8.660;2022-09-03T11:53:25;100646.78;;;30.20;90.90
71004;BME280;59025;42.050;-8.660;2022-09-03T11:55:58;100650.34;;;29.83;89.30
71004;BME280;59025;42.050;-8.660;2022-09-03T11:58:29;100649.56;;;28.95;94.14
71004;BME280;59025;42.050;-8.660;2022-09-03T12:01:01;100631.81;;;28.58;99.84
71004;BME280;59025;42.050;-8.660;2022-09-03T12:03:37;100627.66;;;27.89;100.00
71004;BME280;59025;42.050;-8.660;2022-09-03T12:06:20;100624.47;;;26.89;97.76
71004;BME280;59025;42.050;-8.660;2022-09-03T12:09:01;100628.66;;;26.59;100.00
71004;BME280;59025;42.050;-8.660;2022-09-03T12:11:44;100612.56;;;26.47;100.00
71004;BME280;59025;42.050;-8.660;2022-09-03T12:14:21;100609.28;;;26.64;100.00
71004;BME280;59025;42.050;-8.660;2022-09-03T12:17:03;100608.13;;;26.78;100.00
71004;BME280;59025;42.050;-8.660;2022-09-03T12:19:36;100607.31;;;26.78;100.00
71004;BME280;59025;42.050;-8.660;2022-09-03T12:22:11;100602.41;;;26.93;100.00
71004;BME280;59025;42.050;-8.660;2022-09-03T12:24:39;100605.28;;;26.44;100.00
71004;BME280;59025;42.050;-8.660;2022-09-03T12:27:08;100590.19;;;26.67;100.00
71004;BME280;59025;42.050;-8.660;2022-09-03T12:29:37;100591.72;;;27.88;100.00
71004;BME280;59025;42.050;-8.660;2022-09-03T12:32:08;100592.91;;;28.25;100.00
71004;BME280;59025;42.050;-8.660;2022-09-03T12:34:38;100598.97;;;28.51;98.86
71004;BME280;59025;42.050;-8.660;2022-09-03T12:37:17;100608.78;;;27.57;97.66
71004;BME280;59025;42.050;-8.660;2022-09-03T12:39:50;100601.19;;;26.99;98.89
71004;BME280;59025;42.050;-8.660;2022-09-03T12:42:22;100589.19;;;27.58;96.82
71004;BME280;59025;42.050;-8.660;2022-09-03T12:44:50;100600.84;;;27.31;99.59
71004;BME280;59025;42.050;-8.660;2022-09-03T12:47:22;100593.09;;;27.60;94.89
71004;BME280;59025;42.050;-8.660;2022-09-03T12:49:51;100603.66;;;27.77;88.34
71004;BME280;59025;42.050;-8.660;2022-09-03T12:52:22;100602.28;;;27.97;89.02
71004;BME280;59025;42.050;-8.660;2022-09-03T12:54:54;100608.81;;;28.16;91.35
71004;BME280;59025;42.050;-8.660;2022-09-03T12:57:27;100617.47;;;27.32;90.58
71004;BME280;59025;42.050;-8.660;2022-09-03T12:59:58;100600.16;;;26.70;92.80
71004;BME280;59025;42.050;-8.660;2022-09-03T13:02:36;100605.47;;;26.26;95.47